Time;durP1;ratioP1;P1;durP2;ratioP2;P2;SDS_P1;SDS_P2;PMS_P1;PMS_P2;Temp;Humidity;BMP_temperature;BMP_pressure;BME280_temperature;BME280_humidity;BME280_pressure;Samples;Min_cycle;Max_cycle;Signal;HPM_P1;HPM_P2
2023/08/04 00:00:20;;;;;;;0.40;0.20;;;;;;;17.99;100.00;99590.66;5013373;28;20423;-48
2023/08/04 00:02:47;;;;;;;0.40;0.20;;;;;;;17.95;100.00;99594.53;5016474;28;20456;-48
2023/08/04 00:05:14;;;;;;;0.40;0.20;;;;;;;17.96;100.00;99588.22;5016228;28;20901;-48
2023/08/04 00:07:42;;;;;;;0.40;0.20;;;;;;;18.09;100.00;99598.06;5016432;28;20430;-48
2023/08/04 00:10:09;;;;;;;0.40;0.20;;;;;;;17.89;100.00;99588.72;5007182;28;20453;-49
2023/08/04 00:12:36;;;;;;;0.40;0.20;;;;;;;17.83;100.00;99595.41;5012768;28;20434;-48
2023/08/04 00:15:03;;;;;;;0.40;0.20;;;;;;;17.84;100.00;99593.56;5016231;28;20490;-48
2023/08/04 00:17:29;;;;;;;0.40;0.20;;;;;;;17.84;100.00;99602.50;5015976;28;20427;-49
2023/08/04 00:19:56;;;;;;;0.40;0.20;;;;;;;17.83;100.00;99608.00;5015991;28;20472;-48
2023/08/04 00:22:22;;;;;;;0.40;0.20;;;;;;;17.79;100.00;99604.63;5016242;28;20835;-49
2023/08/04 00:24:49;;;;;;;0.40;0.20;;;;;;;17.64;100.00;99605.66;5016016;28;20427;-48
2023/08/04 00:27:15;;;;;;;0.40;0.20;;;;;;;17.76;100.00;99607.53;5015827;28;20459;-48
2023/08/04 00:29:41;;;;;;;0.40;0.20;;;;;;;17.72;100.00;99606.91;5015628;28;20484;-48
2023/08/04 00:32:08;;;;;;;0.40;0.20;;;;;;;17.76;100.00;99610.22;5015718;28;20437;-49
2023/08/04 00:34:34;;;;;;;0.40;0.20;;;;;;;17.85;100.00;99606.91;5024017;28;20460;-48
2023/08/04 00:37:01;;;;;;;0.40;0.20;;;;;;;17.92;100.00;99604.63;5006387;28;20464;-49
2023/08/04 00:39:27;;;;;;;0.40;0.20;;;;;;;17.98;100.00;99604.22;5006215;28;21046;-49
2023/08/04 00:41:53;;;;;;;0.40;0.20;;;;;;;17.89;100.00;99592.28;5012115;28;20488;-49
2023/08/04 00:44:20;;;;;;;0.40;0.20;;;;;;;17.96;100.00;99606.16;5015657;28;20419;-48
2023/08/04 00:46:46;;;;;;;0.40;0.20;;;;;;;17.98;100.00;99602.41;5015373;28;20798;-48
2023/08/04 00:49:13;;;;;;;0.40;0.20;;;;;;;18.05;100.00;99602.81;5015753;28;20479;-48
2023/08/04 00:51:40;;;;;;;0.40;0.20;;;;;;;18.17;100.00;99604.63;5015418;28;20423;-49
2023/08/04 00:54:06;;;;;;;0.40;0.20;;;;;;;18.38;100.00;99601.41;5015408;28;20900;-48
2023/08/04 00:56:34;;;;;;;0.40;0.20;;;;;;;18.23;100.00;99608.75;5015504;28;20427;-49
2023/08/04 00:59:00;;;;;;;0.40;0.20;;;;;;;18.23;100.00;99608.75;5015436;28;20451;-48
2023/08/04 01:01:27;;;;;;;0.40;0.20;;;;;;;18.18;100.00;99613.56;5015131;28;20423;-48
2023/08/04 01:03:55;;;;;;;0.40;0.20;;;;;;;18.22;100.00;99615.06;5015607;28;20448;-48
2023/08/04 01:06:25;;;;;;;0.40;0.20;;;;;;;18.20;100.00;99615.19;5015421;28;20840;-49
2023/08/04 01:09:12;;;;;;;0.40;0.20;;;;;;;18.21;100.00;99618.72;5015128;28;20457;-48
2023/08/04 01:11:51;;;;;;;0.40;0.20;;;;;;;18.54;100.00;99616.34;5002879;28;20419;-49
2023/08/04 01:14:18;;;;;;;0.40;0.20;;;;;;;18.44;100.00;99620.66;5015202;28;20503;-49
2023/08/04 01:16:45;;;;;;;0.40;0.20;;;;;;;18.21;100.00;99611.50;5015222;28;20423;-48
2023/08/04 01:19:11;;;;;;;0.40;0.20;;;;;;;18.34;100.00;99617.75;5014940;28;20448;-49
2023/08/04 01:21:43;;;;;;;0.40;0.20;;;;;;;18.09;100.00;99614.22;5015077;28;20430;-48
2023/08/04 01:24:11;;;;;;;0.40;0.20;;;;;;;18.37;100.00;99616.69;5014897;28;20423;-48
2023/08/04 01:26:44;;;;;;;0.40;0.20;;;;;;;18.41;100.00;99620.88;5014938;28;20515;-48
2023/08/04 01:29:11;;;;;;;0.40;0.20;;;;;;;18.21;100.00;99621.41;5033918;22;20564;-53
2023/08/04 01:31:38;;;;;;;0.40;0.20;;;;;;;18.36;100.00;99620.31;5054596;28;20524;-53
2023/08/04 01:34:05;;;;;;;0.40;0.20;;;;;;;18.41;100.00;99622.72;5054310;28;20447;-53
2023/08/04 01:36:32;;;;;;;0.40;0.20;;;;;;;18.27;100.00;99621.00;5054430;28;20436;-53
2023/08/04 01:38:59;;;;;;;0.40;0.20;;;;;;;18.41;100.00;99620.00;5054133;28;20432;-53
2023/08/04 01:41:26;;;;;;;0.40;0.20;;;;;;;18.17;100.00;99618.09;5042118;28;20894;-53
2023/08/04 01:43:52;;;;;;;0.40;0.20;;;;;;;18.19;100.00;99618.84;5047765;28;20448;-52
2023/08/04 01:46:19;;;;;;;0.40;0.20;;;;;;;18.12;100.00;99624.78;5046899;28;20443;-53
2023/08/04 01:48:45;;;;;;;0.50;0.40;;;;;;;18.44;100.00;99620.66;5040557;28;20542;-52
2023/08/04 01:51:12;;;;;;;0.40;0.20;;;;;;;18.15;100.00;99619.19;5041320;28;20430;-53
2023/08/04 01:53:38;;;;;;;0.40;0.20;;;;;;;18.46;100.00;99631.31;5047495;28;20433;-53
2023/08/04 01:56:04;;;;;;;0.40;0.20;;;;;;;18.52;100.00;99622.81;5046763;28;21081;-52
2023/08/04 01:58:31;;;;;;;0.40;0.20;;;;;;;18.35;100.00;99618.59;5040706;28;20516;-53
2023/08/04 02:00:57;;;;;;;0.40;0.20;;;;;;;18.48;100.00;99621.28;5040627;28;20471;-53
2023/08/04 02:03:24;;;;;;;0.40;0.20;;;;;;;18.25;100.00;99629.19;5047438;28;20476;-53
2023/08/04 02:05:50;;;;;;;0.40;0.20;;;;;;;18.27;100.00;99629.94;5046980;28;20425;-53
2023/08/04 02:08:17;;;;;;;0.40;0.20;;;;;;;18.40;100.00;99629.06;5022929;28;20846;-52
2023/08/04 02:10:50;;;;;;;0.40;0.20;;;;;;;18.17;100.00;99628.84;5027713;28;20468;-53
2023/08/04 02:13:16;;;;;;;0.40;0.20;;;;;;;18.19;100.00;99620.66;5045863;28;20482;-53
2023/08/04 02:15:43;;;;;;;0.40;0.20;;;;;;;18.64;100.00;99625.50;5046763;28;20491;-53
2023/08/04 02:18:09;;;;;;;0.40;0.20;;;;;;;18.41;100.00;99628.94;5041965;28;20474;-53
2023/08/04 02:20:36;;;;;;;0.40;0.20;;;;;;;18.28;100.00;99633.47;5039926;28;20878;-53
2023/08/04 02:23:04;;;;;;;0.40;0.20;;;;;;;17.96;100.00;99625.84;5044331;28;20545;-53
2023/08/04 02:25:30;;;;;;;0.40;0.20;;;;;;;18.10;100.00;99629.41;5046928;28;20449;-53
2023/08/04 02:27:56;;;;;;;0.40;0.20;;;;;;;18.12;100.00;99635.53;5033327;28;20430;-53
2023/08/04 02:30:23;;;;;;;0.40;0.20;;;;;;;18.24;100.00;99634.69;5046539;28;20450;-53
2023/08/04 02:32:49;;;;;;;0.40;0.20;;;;;;;18.18;100.00;99638.66;5042285;28;20425;-53
2023/08/04 02:35:17;;;;;;;0.40;0.20;;;;;;;18.44;100.00;99639.50;5024110;28;20499;-53
2023/08/04 02:37:44;;;;;;;0.40;0.20;;;;;;;17.97;100.00;99637.47;5044783;28;20513;-53
2023/08/04 02:40:11;;;;;;;0.40;0.20;;;;;;;18.08;100.00;99642.06;5046648;28;20478;-53
2023/08/04 02:42:37;;;;;;;0.40;0.20;;;;;;;17.93;100.00;99647.56;5042187;28;20549;-53
2023/08/04 02:45:05;;;;;;;0.40;0.20;;;;;;;17.86;100.00;99648.09;5039699;28;20531;-53
2023/08/04 02:47:31;;;;;;;0.40;0.20;;;;;;;17.86;100.00;99643.59;5043857;28;20448;-53
2023/08/04 02:49:58;;;;;;;0.40;0.20;;;;;;;17.75;100.00;99646.16;5046417;28;20532;-53
2023/08/04 02:52:24;;;;;;;0.40;0.20;;;;;;;17.80;100.00;99644.00;5042172;28;20473;-53
2023/08/04 02:54:55;;;;;;;0.40;0.20;;;;;;;17.95;100.00;99648.31;5039384;28;20499;-53
2023/08/04 02:57:21;;;;;;;0.40;0.20;;;;;;;17.92;100.00;99653.03;5043302;28;20497;-53
2023/08/04 02:59:48;;;;;;;0.40;0.20;;;;;;;18.23;100.00;99651.78;5045982;28;20561;-53
2023/08/04 03:02:14;;;;;;;0.40;0.20;;;;;;;18.05;100.00;99653.91;5042564;28;20451;-53
2023/08/04 03:04:41;;;;;;;0.40;0.20;;;;;;;17.84;100.00;99653.59;5039647;28;20455;-53
2023/08/04 03:07:07;;;;;;;0.40;0.20;;;;;;;17.80;100.00;99646.69;5042918;28;20514;-53
2023/08/04 03:09:34;;;;;;;0.40;0.20;;;;;;;17.85;100.00;99651.75;5026693;28;20452;-53
2023/08/04 03:12:00;;;;;;;0.40;0.20;;;;;;;17.96;100.00;99652.75;5042957;28;20432;-52
2023/08/04 03:14:28;;;;;;;0.40;0.20;;;;;;;18.02;100.00;99644.25;5039234;28;20505;-53
2023/08/04 03:16:54;;;;;;;0.40;0.20;;;;;;;17.98;100.00;99658.03;5042084;28;20498;-53
2023/08/04 03:19:21;;;;;;;0.40;0.20;;;;;;;18.14;100.00;99657.81;5045993;28;20540;-53
2023/08/04 03:21:47;;;;;;;0.40;0.20;;;;;;;18.35;100.00;99651.75;5042834;28;20537;-53
2023/08/04 03:24:14;;;;;;;0.40;0.20;;;;;;;18.03;100.00;99655.84;5039187;28;20600;-53
2023/08/04 03:26:41;;;;;;;0.40;0.20;;;;;;;18.43;100.00;99662.00;5041668;28;20425;-53
2023/08/04 03:29:07;;;;;;;0.40;0.20;;;;;;;18.21;100.00;99657.25;5036137;28;20467;-53
2023/08/04 03:31:34;;;;;;;0.40;0.20;;;;;;;18.27;100.00;99664.91;5041789;28;20437;-53
2023/08/04 03:34:00;;;;;;;0.40;0.20;;;;;;;18.54;100.00;99663.94;5037718;28;20447;-53
2023/08/04 03:36:27;;;;;;;0.40;0.20;;;;;;;18.64;100.00;99668.59;5035676;28;20552;-53
2023/08/04 03:38:53;;;;;;;0.40;0.20;;;;;;;18.46;100.00;99671.66;5038633;28;21002;-53
2023/08/04 03:41:20;;;;;;;0.40;0.20;;;;;;;18.39;100.00;99663.19;5040720;28;20448;-53
2023/08/04 03:43:46;;;;;;;0.40;0.20;;;;;;;18.69;100.00;99664.69;5033618;28;20456;-53
2023/08/04 03:46:13;;;;;;;0.40;0.20;;;;;;;18.44;100.00;99671.78;5040871;28;20454;-53
2023/08/04 03:48:39;;;;;;;0.40;0.20;;;;;;;18.14;100.00;99664.06;5038887;28;20497;-53
2023/08/04 03:51:05;;;;;;;0.40;0.20;;;;;;;18.56;100.00;99673.59;5040304;28;20530;-53
2023/08/04 03:53:32;;;;;;;0.40;0.20;;;;;;;18.49;100.00;99675.00;5045214;28;20920;-53
2023/08/04 03:55:58;;;;;;;0.40;0.20;;;;;;;18.24;100.00;99659.75;5044524;28;20490;-53
2023/08/04 03:58:25;;;;;;;0.40;0.20;;;;;;;18.29;100.00;99672.88;5038698;28;20538;-53
2023/08/04 04:00:51;;;;;;;0.40;0.20;;;;;;;18.41;100.00;99673.84;5039838;28;20475;-53
2023/08/04 04:03:18;;;;;;;0.40;0.20;;;;;;;18.43;100.00;99677.28;5045911;28;20447;-53
2023/08/04 04:05:44;;;;;;;0.40;0.20;;;;;;;18.16;100.00;99683.63;5044730;28;20984;-53
2023/08/04 04:08:12;;;;;;;0.40;0.20;;;;;;;17.87;100.00;99684.78;5034533;28;20425;-53
2023/08/04 04:10:39;;;;;;;0.40;0.20;;;;;;;17.98;100.00;99679.53;5024894;28;20474;-53
2023/08/04 04:13:05;;;;;;;0.40;0.20;;;;;;;17.88;100.00;99686.50;5045227;28;20458;-53
2023/08/04 04:15:32;;;;;;;0.40;0.20;;;;;;;18.36;100.00;99692.97;5045095;28;20513;-53
2023/08/04 04:17:58;;;;;;;0.40;0.20;;;;;;;18.37;100.00;99681.28;5038378;28;20451;-53
2023/08/04 04:20:25;;;;;;;0.40;0.20;;;;;;;18.28;100.00;99690.84;5038567;28;20821;-53
2023/08/04 04:22:53;;;;;;;0.40;0.20;;;;;;;18.48;100.00;99691.25;5025552;28;21008;-53
2023/08/04 04:25:19;;;;;;;0.40;0.20;;;;;;;18.06;100.00;99691.47;5038454;28;20451;-53
2023/08/04 04:27:46;;;;;;;0.40;0.20;;;;;;;18.12;100.00;99695.59;5035006;28;20999;-53
2023/08/04 04:30:12;;;;;;;0.40;0.20;;;;;;;18.29;100.00;99699.78;5045170;28;20461;-53
2023/08/04 04:32:39;;;;;;;0.50;0.30;;;;;;;18.22;100.00;99695.78;5039327;28;20450;-54
2023/08/04 04:35:05;;;;;;;0.40;0.20;;;;;;;18.24;100.00;99708.19;5022618;28;20474;-53
2023/08/04 04:37:32;;;;;;;0.40;0.20;;;;;;;18.08;100.00;99703.94;5044604;28;20525;-54
2023/08/04 04:39:58;;;;;;;0.40;0.20;;;;;;;18.09;100.00;99702.97;5044811;28;20445;-54
2023/08/04 04:42:25;;;;;;;0.40;0.30;;;;;;;18.08;100.00;99698.56;5039098;28;20447;-53
2023/08/04 04:44:51;;;;;;;0.40;0.20;;;;;;;18.11;100.00;99703.75;5038276;28;20531;-53
2023/08/04 04:47:18;;;;;;;0.40;0.20;;;;;;;17.93;100.00;99708.56;5046428;28;20454;-53
2023/08/04 04:49:44;;;;;;;0.40;0.20;;;;;;;17.93;100.00;99711.25;5048747;28;20574;-53
2023/08/04 04:52:19;;;;;;;0.40;0.20;;;;;;;17.91;100.00;99711.34;5043263;28;20449;-54
2023/08/04 04:54:46;;;;;;;0.40;0.20;;;;;;;18.27;100.00;99720.56;5041526;28;20447;-53
2023/08/04 04:57:12;;;;;;;0.40;0.20;;;;;;;17.78;100.00;99723.91;5046181;28;20579;-53
2023/08/04 04:59:38;;;;;;;0.40;0.20;;;;;;;17.92;100.00;99722.97;5048670;28;20473;-53
2023/08/04 05:02:05;;;;;;;0.40;0.20;;;;;;;18.02;100.00;99724.06;5044923;28;20450;-53
2023/08/04 05:04:31;;;;;;;0.40;0.20;;;;;;;18.10;100.00;99731.63;5041603;28;20444;-53
2023/08/04 05:06:58;;;;;;;0.40;0.20;;;;;;;17.87;100.00;99734.03;5044695;28;20455;-53
2023/08/04 05:09:24;;;;;;;0.40;0.20;;;;;;;17.83;100.00;99727.16;5029942;28;21044;-53
2023/08/04 05:11:51;;;;;;;0.40;0.20;;;;;;;17.77;100.00;99733.78;5044587;28;20450;-53
2023/08/04 05:14:17;;;;;;;1.60;1.60;;;;;;;17.95;100.00;99728.97;5041609;28;20453;-53
2023/08/04 05:16:45;;;;;;;0.40;0.20;;;;;;;17.64;100.00;99738.22;5045525;28;20466;-53
2023/08/04 05:19:11;;;;;;;0.40;0.20;;;;;;;17.40;100.00;99737.16;5048146;28;20478;-53
2023/08/04 05:21:37;;;;;;;0.40;0.20;;;;;;;17.41;100.00;99742.47;5044769;28;20446;-53
2023/08/04 05:24:04;;;;;;;0.40;0.20;;;;;;;17.67;100.00;99737.16;5041771;28;20813;-53
2023/08/04 05:26:30;;;;;;;0.40;0.20;;;;;;;17.58;100.00;99741.34;5044793;28;20437;-53
2023/08/04 05:28:57;;;;;;;0.40;0.20;;;;;;;17.60;100.00;99739.41;5037474;28;20425;-54
2023/08/04 05:31:23;;;;;;;0.40;0.20;;;;;;;17.58;100.00;99737.78;5044928;28;20496;-53
2023/08/04 05:33:50;;;;;;;0.40;0.20;;;;;;;17.55;100.00;99738.00;5041594;28;21016;-53
2023/08/04 05:36:16;;;;;;;0.40;0.20;;;;;;;17.70;100.00;99751.31;5034799;28;20942;-53
2023/08/04 05:38:44;;;;;;;0.40;0.20;;;;;;;17.47;100.00;99743.88;5040874;28;20528;-54
2023/08/04 05:41:10;;;;;;;0.40;0.20;;;;;;;17.57;100.00;99746.81;5044259;28;20830;-53
2023/08/04 05:43:37;;;;;;;0.40;0.20;;;;;;;17.63;100.00;99755.31;5047926;28;20454;-53
2023/08/04 05:46:03;;;;;;;0.40;0.20;;;;;;;17.62;100.00;99755.44;5044997;28;20461;-53
2023/08/04 05:48:31;;;;;;;0.40;0.20;;;;;;;17.68;100.00;99753.25;5041048;28;20501;-53
2023/08/04 05:50:58;;;;;;;0.40;0.20;;;;;;;17.57;100.00;99763.81;5043159;28;20477;-53
2023/08/04 05:53:25;;;;;;;0.40;0.20;;;;;;;17.62;100.00;99758.13;5047699;28;20452;-53
2023/08/04 05:55:52;;;;;;;0.40;0.20;;;;;;;17.82;100.00;99763.09;5045695;28;20475;-54
2023/08/04 05:58:18;;;;;;;0.40;0.20;;;;;;;17.64;100.00;99764.25;5040508;28;20431;-53
2023/08/04 06:00:45;;;;;;;0.40;0.20;;;;;;;17.64;100.00;99762.41;5042576;28;20467;-54
2023/08/04 06:03:12;;;;;;;0.40;0.20;;;;;;;17.64;100.00;99770.50;5047400;28;20422;-53
2023/08/04 06:05:38;;;;;;;0.40;0.20;;;;;;;17.71;100.00;99761.09;5045590;28;20472;-53
2023/08/04 06:08:05;;;;;;;0.40;0.20;;;;;;;17.73;100.00;99769.91;5038893;28;20451;-53
2023/08/04 06:10:32;;;;;;;0.40;0.20;;;;;;;17.90;100.00;99768.78;5025469;28;20478;-54
2023/08/04 06:12:59;;;;;;;0.40;0.20;;;;;;;17.88;100.00;99768.03;5047160;28;20426;-54
2023/08/04 06:15:26;;;;;;;0.40;0.20;;;;;;;17.72;100.00;99775.41;5045817;28;20799;-54
2023/08/04 06:17:52;;;;;;;0.40;0.20;;;;;;;18.03;100.00;99772.38;5039962;28;20447;-54
2023/08/04 06:20:19;;;;;;;0.40;0.20;;;;;;;17.96;100.00;99773.78;5041360;28;20477;-53
2023/08/04 06:22:48;;;;;;;0.40;0.20;;;;;;;17.91;100.00;99775.03;5047009;28;20444;-53
2023/08/04 06:25:15;;;;;;;0.40;0.20;;;;;;;17.91;100.00;99785.78;5046582;28;20512;-53
2023/08/04 06:27:41;;;;;;;0.40;0.20;;;;;;;17.92;100.00;99777.59;5034509;28;20422;-56
2023/08/04 06:30:08;;;;;;;0.40;0.20;;;;;;;17.79;100.00;99781.22;5046302;28;20537;-53
2023/08/04 06:32:35;;;;;;;0.40;0.20;;;;;;;17.98;100.00;99787.97;5039813;28;20460;-53
2023/08/04 06:35:01;;;;;;;0.40;0.20;;;;;;;18.13;100.00;99793.28;5024585;28;20528;-54
2023/08/04 06:37:28;;;;;;;0.40;0.20;;;;;;;18.00;100.00;99791.41;5046707;28;20554;-53
2023/08/04 06:39:54;;;;;;;0.40;0.20;;;;;;;17.96;100.00;99792.59;5046669;28;20441;-54
2023/08/04 06:42:21;;;;;;;0.40;0.20;;;;;;;18.17;100.00;99802.84;5040310;28;20447;-54
2023/08/04 06:44:47;;;;;;;0.40;0.20;;;;;;;18.48;100.00;99796.22;5039999;28;20458;-54
2023/08/04 06:47:14;;;;;;;0.40;0.20;;;;;;;18.00;100.00;99801.31;5026819;28;20445;-53
2023/08/04 06:49:42;;;;;;;0.40;0.20;;;;;;;18.00;100.00;99807.56;5039981;28;20474;-53
2023/08/04 06:52:09;;;;;;;0.40;0.20;;;;;;;18.05;100.00;99802.72;5045923;28;20455;-53
2023/08/04 06:54:36;;;;;;;0.40;0.20;;;;;;;18.49;100.00;99806.88;5046375;28;20429;-56
2023/08/04 06:57:03;;;;;;;0.40;0.20;;;;;;;18.38;100.00;99806.78;5040229;28;20519;-54
2023/08/04 06:59:31;;;;;;;0.40;0.20;;;;;;;18.19;100.00;99820.63;5038979;28;20521;-53
2023/08/04 07:01:57;;;;;;;0.40;0.20;;;;;;;18.63;100.00;99809.53;5045027;28;20454;-53
2023/08/04 07:04:24;;;;;;;3.07;2.67;;;;;;;18.64;100.00;99818.50;5046349;28;20443;-54
2023/08/04 07:06:51;;;;;;;0.40;0.20;;;;;;;18.63;100.00;99817.59;5040905;28;20529;-54
2023/08/04 07:09:17;;;;;;;0.40;0.30;;;;;;;18.74;100.00;99818.69;5038847;28;20475;-53
2023/08/04 07:11:44;;;;;;;0.40;0.20;;;;;;;18.72;100.00;99824.19;5044420;28;20521;-53
2023/08/04 07:14:10;;;;;;;0.40;0.20;;;;;;;18.74;100.00;99827.63;5045884;28;20421;-53
2023/08/04 07:16:37;;;;;;;0.40;0.30;;;;;;;18.67;100.00;99831.72;5041384;28;20477;-53
2023/08/04 07:19:03;;;;;;;0.40;0.20;;;;;;;18.86;100.00;99831.31;5039164;28;20541;-53
2023/08/04 07:21:30;;;;;;;0.40;0.20;;;;;;;18.94;100.00;99835.19;5043945;28;20521;-54
2023/08/04 07:23:56;;;;;;;0.40;0.20;;;;;;;18.97;100.00;99841.31;5046004;28;20515;-55
2023/08/04 07:26:23;;;;;;;0.40;0.20;;;;;;;18.89;100.00;99837.31;5040477;28;20417;-54
2023/08/04 07:28:49;;;;;;;0.40;0.20;;;;;;;18.78;100.00;99841.78;5030548;28;20824;-55
2023/08/04 07:31:16;;;;;;;0.40;0.20;;;;;;;19.13;100.00;99839.25;5033279;22;20591;-50
2023/08/04 07:33:42;;;;;;;1.13;0.77;;;;;;;18.93;100.00;99841.56;5002893;28;20546;-50
2023/08/04 07:36:08;;;;;;;0.40;0.20;;;;;;;18.98;100.00;99845.75;5023326;28;20467;-50
2023/08/04 07:38:35;;;;;;;0.40;0.20;;;;;;;19.01;100.00;99838.28;5001846;28;20453;-50
2023/08/04 07:41:01;;;;;;;0.40;0.20;;;;;;;19.14;100.00;99844.53;5003503;28;20483;-50
2023/08/04 07:43:28;;;;;;;0.40;0.20;;;;;;;19.31;100.00;99848.72;5006048;28;20452;-50
2023/08/04 07:45:54;;;;;;;0.40;0.20;;;;;;;19.07;100.00;99854.06;5002350;28;20448;-50
2023/08/04 07:48:22;;;;;;;0.40;0.20;;;;;;;18.91;100.00;99854.28;4999283;28;21059;-50
2023/08/04 07:50:50;;;;;;;0.40;0.20;;;;;;;19.08;100.00;99860.28;5003124;28;20822;-50
2023/08/04 07:53:17;;;;;;;0.50;0.50;;;;;;;19.08;100.00;99855.78;5006166;28;20431;-50
2023/08/04 07:55:54;;;;;;;0.40;0.20;;;;;;;18.99;100.00;99856.41;5002696;28;20423;-50
2023/08/04 07:58:21;;;;;;;0.40;0.20;;;;;;;19.10;100.00;99861.03;4999471;28;20529;-50
2023/08/04 08:00:47;;;;;;;0.40;0.30;;;;;;;19.10;100.00;99856.53;5000994;28;20481;-50
2023/08/04 08:03:13;;;;;;;0.40;0.20;;;;;;;18.97;100.00;99852.97;5006063;28;20435;-50
2023/08/04 08:05:40;;;;;;;0.40;0.20;;;;;;;19.20;100.00;99862.13;5004394;28;20849;-50
2023/08/04 08:08:07;;;;;;;0.40;0.20;;;;;;;18.82;100.00;99865.69;4998213;28;20445;-50
2023/08/04 08:10:34;;;;;;;0.40;0.20;;;;;;;19.15;100.00;99864.25;5004552;28;20472;-50
2023/08/04 08:13:02;;;;;;;0.40;0.20;;;;;;;19.09;100.00;99865.56;4999170;28;20423;-50
2023/08/04 08:15:28;;;;;;;0.40;0.20;;;;;;;19.27;100.00;99862.53;5000369;28;20428;-50
2023/08/04 08:17:54;;;;;;;0.40;0.20;;;;;;;18.78;100.00;99872.25;5005637;28;20523;-50
2023/08/04 08:20:21;;;;;;;0.40;0.20;;;;;;;18.80;100.00;99869.44;5004933;28;20975;-50
2023/08/04 08:22:48;;;;;;;0.40;0.20;;;;;;;19.01;100.00;99869.75;5002180;28;20558;-50
2023/08/04 08:25:14;;;;;;;0.40;0.20;;;;;;;18.83;100.00;99874.63;5003466;28;20450;-50
2023/08/04 08:27:40;;;;;;;0.40;0.20;;;;;;;19.18;100.00;99883.75;5004800;28;20420;-50
2023/08/04 08:30:07;;;;;;;0.40;0.20;;;;;;;19.09;100.00;99886.28;5009132;28;20454;-50
2023/08/04 08:32:34;;;;;;;0.40;0.20;;;;;;;19.06;99.29;99878.41;5002744;28;20737;-50
2023/08/04 08:35:00;;;;;;;0.40;0.20;;;;;;;18.98;100.00;99881.63;5014736;28;20427;-51
2023/08/04 08:37:27;;;;;;;0.97;0.53;;;;;;;19.04;100.00;99886.56;4989475;28;20476;-50
2023/08/04 08:39:53;;;;;;;0.40;0.20;;;;;;;19.11;100.00;99893.28;5013094;28;20473;-50
2023/08/04 08:42:20;;;;;;;0.40;0.20;;;;;;;18.99;99.75;99885.19;4996366;28;20431;-50
2023/08/04 08:44:46;;;;;;;0.40;0.30;;;;;;;19.21;100.00;99891.66;5009100;28;20949;-50
2023/08/04 08:47:12;;;;;;;0.40;0.20;;;;;;;19.37;100.00;99887.88;5002538;28;20423;-50
2023/08/04 08:49:45;;;;;;;2.50;2.30;;;;;;;19.36;100.00;99897.78;5002533;28;20480;-51
2023/08/04 08:52:12;;;;;;;0.40;0.20;;;;;;;19.54;100.00;99898.31;4990869;28;20440;-50
2023/08/04 08:54:38;;;;;;;0.40;0.20;;;;;;;19.44;99.83;99903.47;4988908;28;20428;-50
2023/08/04 08:57:05;;;;;;;0.40;0.20;;;;;;;19.50;100.00;99896.81;5003167;28;20614;-50
2023/08/04 08:59:33;;;;;;;0.40;0.20;;;;;;;19.81;99.91;99900.88;5002190;28;20477;-50
2023/08/04 09:02:02;;;;;;;0.40;0.20;;;;;;;19.48;100.00;99906.84;5007620;28;20544;-50
2023/08/04 09:04:33;;;;;;;0.40;0.20;;;;;;;19.68;100.00;99900.91;5008836;28;20457;-50
2023/08/04 09:07:00;;;;;;;0.40;0.20;;;;;;;19.72;100.00;99907.78;5004612;28;20813;-50
2023/08/04 09:09:26;;;;;;;0.40;0.20;;;;;;;19.87;99.75;99910.34;5002136;28;20427;-50
2023/08/04 09:11:56;;;;;;;0.40;0.20;;;;;;;19.51;99.86;99912.00;5005972;28;20435;-50
2023/08/04 09:14:22;;;;;;;0.40;0.30;;;;;;;19.88;99.23;99910.25;5008590;28;20892;-50
2023/08/04 09:16:49;;;;;;;0.40;0.20;;;;;;;19.74;99.97;99911.25;5005542;28;20989;-50
2023/08/04 09:19:16;;;;;;;0.40;0.20;;;;;;;19.82;100.00;99908.84;5001880;28;20438;-51
2023/08/04 09:21:42;;;;;;;0.40;0.20;;;;;;;19.46;98.96;99914.16;5005166;28;20478;-50
2023/08/04 09:24:10;;;;;;;0.40;0.20;;;;;;;19.70;99.21;99919.66;5008432;28;20528;-50
2023/08/04 09:26:42;;;;;;;0.40;0.20;;;;;;;19.88;94.06;99925.56;5003919;28;20423;-50
2023/08/04 09:29:09;;;;;;;0.40;0.20;;;;;;;20.16;94.38;99921.72;5000397;28;20548;-50
2023/08/04 09:31:40;;;;;;;0.40;0.20;;;;;;;19.75;95.77;99921.06;5002731;28;20442;-50
2023/08/04 09:34:08;;;;;;;0.40;0.20;;;;;;;19.69;95.75;99918.78;5013787;28;20456;-50
2023/08/04 09:36:41;;;;;;;0.40;0.20;;;;;;;19.73;93.25;99922.13;5014633;28;20488;-50
2023/08/04 09:39:11;;;;;;;0.40;0.20;;;;;;;19.96;94.21;99923.16;5012737;28;20530;-51
2023/08/04 09:41:42;;;;;;;0.40;0.20;;;;;;;19.87;92.24;99926.53;5001510;28;20870;-50
2023/08/04 09:44:09;;;;;;;0.40;0.20;;;;;;;19.88;91.55;99917.47;4997545;28;20433;-50
2023/08/04 09:46:46;;;;;;;0.40;0.20;;;;;;;20.18;90.56;99923.31;4992702;28;20435;-50
2023/08/04 09:49:13;;;;;;;0.40;0.20;;;;;;;19.60;91.72;99918.59;5004404;28;20424;-50
2023/08/04 09:51:43;;;;;;;0.40;0.20;;;;;;;19.94;90.30;99925.97;5007962;28;20800;-50
2023/08/04 09:54:10;;;;;;;0.40;0.20;;;;;;;20.21;89.71;99924.91;5005944;28;20484;-50
2023/08/04 09:56:37;;;;;;;0.40;0.20;;;;;;;19.90;89.00;99924.47;5001133;28;20463;-50
2023/08/04 09:59:03;;;;;;;0.40;0.20;;;;;;;20.29;90.47;99923.38;5002688;28;20937;-50
2023/08/04 10:01:30;;;;;;;0.40;0.20;;;;;;;20.25;89.59;99929.97;5007875;28;20527;-50
2023/08/04 10:03:57;;;;;;;0.40;0.20;;;;;;;20.28;89.53;99921.63;5006398;28;20455;-50
2023/08/04 10:06:25;;;;;;;0.50;0.40;;;;;;;20.54;88.96;99924.25;5000891;28;20427;-50
2023/08/04 10:08:54;;;;;;;0.40;0.20;;;;;;;20.51;88.84;99916.38;5002313;28;20453;-50
2023/08/04 10:11:21;;;;;;;0.50;0.30;;;;;;;20.64;89.37;99914.47;5007184;28;20478;-50
2023/08/04 10:13:51;;;;;;;0.40;0.20;;;;;;;20.58;87.20;99925.75;5007296;28;20518;-50
2023/08/04 10:16:20;;;;;;;0.40;0.20;;;;;;;20.87;87.28;99924.38;4988151;28;20839;-50
2023/08/04 10:18:48;;;;;;;0.40;0.20;;;;;;;20.82;85.93;99928.41;5000874;28;20540;-50
2023/08/04 10:21:17;;;;;;;0.40;0.20;;;;;;;20.79;86.89;99928.66;5006428;28;20455;-50
2023/08/04 10:23:44;;;;;;;0.40;0.20;;;;;;;21.36;88.08;99925.97;5007259;28;20459;-50
2023/08/04 10:26:14;;;;;;;0.43;0.30;;;;;;;21.31;83.77;99930.91;5002156;28;20453;-51
2023/08/04 10:29:07;;;;;;;0.40;0.20;;;;;;;21.29;86.07;99925.63;4996261;28;20445;-50
2023/08/04 10:31:51;;;;;;;0.40;0.20;;;;;;;21.55;82.77;99925.41;5001067;28;20440;-50
2023/08/04 10:34:31;;;;;;;0.40;0.20;;;;;;;21.52;84.26;99929.22;4991347;28;20419;-51
2023/08/04 10:37:18;;;;;;;0.50;0.30;;;;;;;21.80;82.58;99927.84;5011376;28;20489;-51
2023/08/04 10:40:05;;;;;;;1.60;0.97;;;;;;;21.41;82.64;99929.19;5005738;28;20469;-51
2023/08/04 10:42:31;;;;;;;0.40;0.20;;;;;;;21.09;84.64;99930.81;4990605;28;20449;-51
2023/08/04 10:45:09;;;;;;;0.40;0.20;;;;;;;21.62;82.05;99937.44;4999449;28;20456;-51
2023/08/04 10:47:51;;;;;;;0.40;0.20;;;;;;;22.08;79.36;99931.06;5003954;28;20512;-51
2023/08/04 10:50:36;;;;;;;0.40;0.20;;;;;;;22.20;80.92;99931.84;4990403;28;20447;-51
2023/08/04 10:53:03;;;;;;;0.50;0.30;;;;;;;22.09;77.93;99933.63;4999850;28;20974;-51
2023/08/04 10:55:29;;;;;;;0.40;0.20;;;;;;;22.26;79.56;99932.22;5005328;28;20449;-51
2023/08/04 10:57:56;;;;;;;0.40;0.20;;;;;;;22.40;78.21;99940.06;5006892;28;20496;-50
2023/08/04 11:00:22;;;;;;;0.40;0.20;;;;;;;22.29;80.73;99936.53;5001921;28;20448;-51
2023/08/04 11:02:48;;;;;;;0.40;0.20;;;;;;;21.79;80.53;99933.38;4999947;28;20458;-50
2023/08/04 11:05:15;;;;;;;0.40;0.30;;;;;;;22.30;80.49;99935.53;5004606;28;20428;-50
2023/08/04 11:07:46;;;;;;;0.40;0.20;;;;;;;22.37;80.62;99932.19;5006315;28;20798;-51
2023/08/04 11:10:13;;;;;;;0.40;0.20;;;;;;;22.29;79.58;99936.53;5003163;28;20455;-51
2023/08/04 11:12:40;;;;;;;0.40;0.20;;;;;;;22.36;79.67;99945.88;4999703;28;20890;-50
2023/08/04 11:15:10;;;;;;;0.40;0.20;;;;;;;22.59;79.39;99943.94;5003775;28;20473;-50
2023/08/04 11:17:39;;;;;;;0.40;0.20;;;;;;;22.03;78.80;99944.06;5006277;28;20562;-50
2023/08/04 11:20:12;;;;;;;0.50;0.37;;;;;;;22.56;78.51;99942.34;5003916;28;20955;-50
2023/08/04 11:22:59;;;;;;;0.40;0.20;;;;;;;22.74;78.17;99935.38;4989048;28;20519;-50
2023/08/04 11:25:26;;;;;;;0.40;0.30;;;;;;;22.52;80.23;99935.47;4999459;28;20504;-50
2023/08/04 11:27:53;;;;;;;0.40;0.20;;;;;;;22.54;78.55;99948.88;5000221;28;20449;-50